createdAt,value
2022-08-12T00:03:22.451Z,23.12
2022-08-12T00:08:54.180Z,22.97
2022-08-12T00:14:25.828Z,22.9
2022-08-12T00:19:57.610Z,22.88
2022-08-12T00:25:51.130Z,22.98
2022-08-12T00:31:01.116Z,23.05
2022-08-12T00:36:37.070Z,23.08
2022-08-12T00:42:08.786Z,22.76
2022-08-12T00:47:40.567Z,22.58
2022-08-12T00:53:12.306Z,22.66
2022-08-12T00:58:44.032Z,22.74
2022-08-12T01:04:15.714Z,22.76
2022-08-12T01:09:47.525Z,22.78
2022-08-12T01:15:19.142Z,22.74
2022-08-12T01:20:50.898Z,22.7
2022-08-12T01:26:22.610Z,22.62
2022-08-12T01:31:54.431Z,22.51
2022-08-12T01:37:32.443Z,22.47
2022-08-12T01:43:04.163Z,22.22
2022-08-12T01:48:35.892Z,22.28
2022-08-12T01:54:07.622Z,22.36
2022-08-12T01:59:39.311Z,22.19
2022-08-12T02:05:11.052Z,22.21
2022-08-12T02:10:49.700Z,22.14
2022-08-12T02:16:14.491Z,22.01
2022-08-12T02:21:46.277Z,21.81
2022-08-12T02:27:17.933Z,21.83
2022-08-12T02:32:49.661Z,21.82
2022-08-12T02:38:25.785Z,21.7
2022-08-12T02:43:57.481Z,21.67
2022-08-12T02:49:29.181Z,21.54
2022-08-12T02:55:00.924Z,21.44
2022-08-12T03:00:32.633Z,21.28
2022-08-12T03:06:04.357Z,21.21
2022-08-12T03:11:38.917Z,21.1
2022-08-12T03:17:07.861Z,21.07
2022-08-12T03:22:39.658Z,20.97
2022-08-12T03:28:11.268Z,20.87
2022-08-12T03:33:43.041Z,20.83
2022-08-12T03:39:19.126Z,20.73
2022-08-12T03:44:50.867Z,20.65
2022-08-12T03:50:22.534Z,20.5
2022-08-12T03:55:54.190Z,20.51
2022-08-12T04:01:26.006Z,20.4
2022-08-12T04:06:57.662Z,20.23
2022-08-12T04:12:32.274Z,20.19
2022-08-12T04:18:06.270Z,20.21
2022-08-12T04:23:32.818Z,20.21
2022-08-12T04:29:04.601Z,20.2
2022-08-12T04:34:36.256Z,20.23
2022-08-12T04:40:12.350Z,20.07
2022-08-12T04:45:44.183Z,19.9
2022-08-12T04:51:15.875Z,19.73
2022-08-12T04:56:53.188Z,19.59
2022-08-12T05:02:20.707Z,19.43
2022-08-12T05:07:54.603Z,19.39
2022-08-12T05:13:22.722Z,19.44
2022-08-12T05:18:54.393Z,19.3
2022-08-12T05:24:26.326Z,19.55
2022-08-12T05:30:05.770Z,19.65
2022-08-12T05:35:29.597Z,19.87
2022-08-12T05:41:05.689Z,20.07
2022-08-12T05:46:37.334Z,20.41
2022-08-12T05:52:09.098Z,20.53
2022-08-12T05:57:40.834Z,20.67
2022-08-12T06:03:12.670Z,20.96
2022-08-12T06:08:44.273Z,21.33
2022-08-12T06:14:16.109Z,21.31
2022-08-12T06:20:22.288Z,21.64
2022-08-12T06:25:21.945Z,21.85
2022-08-12T06:31:08.513Z,22.2
2022-08-12T06:36:22.933Z,22.08
2022-08-12T06:42:02.365Z,22.52
2022-08-12T06:47:30.758Z,22.98
2022-08-12T06:53:02.415Z,22.97
2022-08-12T06:58:34.097Z,23.42
2022-08-12T07:04:26.272Z,23.57
2022-08-12T07:09:56.075Z,23.56
2022-08-12T07:15:09.343Z,23.89
2022-08-12T07:20:52.037Z,24.49
2022-08-12T07:26:12.857Z,24.58
2022-08-12T07:31:44.566Z,24.75
2022-08-12T07:37:16.470Z,25.06
2022-08-12T07:42:54.427Z,25.11
2022-08-12T07:48:26.244Z,25.37
2022-08-12T07:54:00.644Z,25.28
2022-08-12T07:59:29.805Z,25.47
2022-08-12T08:05:01.383Z,25.97
2022-08-12T08:10:33.189Z,26.12
2022-08-12T08:16:04.841Z,26.39
2022-08-12T08:21:36.961Z,26.37
2022-08-12T08:27:08.314Z,26.8
2022-08-12T08:32:40.109Z,26.67
2022-08-12T08:38:12.605Z,27.42
2022-08-12T08:43:47.932Z,27.45
2022-08-12T08:49:19.659Z,27.7
2022-08-12T08:54:51.394Z,27.84
2022-08-12T09:00:23.129Z,27.72
2022-08-12T09:06:01.920Z,28.23
2022-08-12T09:11:52.425Z,28.52
2022-08-12T09:16:58.429Z,27.83
2022-08-12T09:22:30.081Z,28.53
2022-08-12T09:34:27.122Z,28.61
2022-08-12T09:40:02.866Z,28.69
2022-08-12T09:40:56.023Z,28.69
2022-08-12T09:44:41.506Z,29.12
2022-08-12T09:50:20.207Z,29.75
2022-08-12T09:55:59.500Z,28.95
2022-08-12T10:01:23.031Z,29.06
2022-08-12T10:06:54.510Z,29.03
2022-08-12T10:12:31.266Z,29.4
2022-08-12T10:17:56.493Z,29.74
2022-08-12T10:23:39.648Z,30.09
2022-08-12T10:29:02.258Z,29.34
2022-08-12T10:34:27.096Z,29.81
2022-08-12T10:40:02.391Z,29.79
2022-08-12T10:45:35.707Z,29.93
2022-08-12T10:51:52.101Z,29.43
2022-08-12T10:56:38.129Z,30.05
2022-08-12T11:04:17.747Z,30.44
2022-08-12T11:04:21.801Z,30.44
2022-08-12T11:08:35.419Z,30.7
2022-08-12T11:13:13.353Z,30.5
2022-08-12T11:18:44.973Z,30.5
2022-08-12T11:24:18.898Z,31.04
2022-08-12T11:30:00.643Z,30.64
2022-08-12T11:35:20.172Z,30.83
2022-08-12T11:40:51.878Z,30.91
2022-08-12T11:46:28.027Z,30.85
2022-08-12T11:52:00.002Z,31.22
2022-08-12T11:58:01.340Z,31.82
2022-08-12T11:58:52.983Z,31.82
2022-08-12T12:03:03.238Z,30.99
2022-08-12T12:08:41.872Z,30.96
2022-08-12T12:14:11.060Z,30.51
2022-08-12T12:19:45.535Z,30.91
2022-08-12T12:25:13.441Z,31.29
2022-08-12T12:30:43.766Z,31.63
2022-08-12T12:36:18.825Z,30.87
2022-08-12T12:41:48.200Z,30.38
2022-08-12T12:47:28.981Z,30.24
2022-08-12T12:52:56.335Z,30.21
2022-08-12T12:58:28.064Z,31.05
2022-08-12T13:04:02.344Z,30.44
2022-08-12T13:09:35.942Z,30.42
2022-08-12T13:15:03.307Z,30.49
2022-08-12T13:20:37.626Z,30.97
2022-08-12T13:26:06.719Z,30.77
2022-08-12T13:31:46.250Z,30.96
2022-08-12T13:37:10.209Z,30.92
2022-08-12T13:42:42.062Z,30.94
2022-08-12T13:48:20.034Z,31.11
2022-08-12T13:53:55.621Z,31.51
2022-08-12T13:59:24.445Z,31.46
2022-08-12T14:04:56.054Z,31.03
2022-08-12T14:10:28.294Z,30.61
2022-08-12T14:15:58.590Z,30.72
2022-08-12T14:21:30.540Z,30.88
2022-08-12T14:27:02.707Z,31.3
2022-08-12T14:32:33.916Z,31.57
2022-08-12T14:38:05.554Z,31.55
2022-08-12T14:43:44.212Z,31.63
2022-08-12T14:49:27.659Z,31.64
2022-08-12T14:50:34.597Z,31.64
2022-08-12T14:56:58.183Z,31.64
2022-08-12T14:56:58.239Z,31.64
2022-08-12T15:00:16.806Z,31.55
2022-08-12T15:06:00.783Z,30.71
2022-08-12T15:11:21.717Z,30.45
2022-08-12T15:16:51.980Z,30.83
2022-08-12T15:22:35.246Z,30.98
2022-08-12T15:28:04.808Z,31.15
2022-08-12T15:33:27.144Z,31.0
2022-08-12T15:38:58.845Z,30.89
2022-08-12T15:44:39.071Z,31.23
2022-08-12T15:50:08.658Z,31.28
2022-08-12T15:55:45.954Z,31.25
2022-08-12T16:01:12.179Z,30.81
2022-08-12T16:07:03.582Z,30.46
2022-08-12T16:12:15.627Z,30.2
2022-08-12T16:18:09.133Z,30.08
2022-08-12T16:23:27.179Z,29.93
2022-08-12T16:28:51.129Z,29.88
2022-08-12T16:34:25.644Z,30.12
2022-08-12T16:39:57.361Z,30.04
2022-08-12T16:45:31.962Z,29.9
2022-08-12T16:51:02.366Z,29.51
2022-08-12T16:56:34.159Z,29.46
2022-08-12T17:02:05.904Z,29.11
2022-08-12T17:07:37.862Z,29.02
2022-08-12T17:13:09.642Z,29.0
2022-08-12T17:18:44.086Z,29.07
2022-08-12T17:24:15.189Z,29.14
2022-08-12T17:30:01.685Z,29.05
2022-08-12T17:35:16.192Z,28.8
2022-08-12T17:40:47.999Z,28.92
2022-08-12T17:46:23.751Z,28.7
2022-08-12T17:52:02.121Z,28.8
2022-08-12T17:57:27.505Z,28.5
2022-08-12T18:02:59.282Z,28.64
2022-08-12T18:08:30.965Z,28.59
2022-08-12T18:14:02.664Z,28.55
2022-08-12T18:20:04.489Z,28.28
2022-08-12T18:25:06.398Z,27.98
2022-08-12T18:30:37.808Z,27.99
2022-08-12T18:36:13.204Z,27.84
2022-08-12T18:41:41.278Z,27.5
2022-08-12T18:47:13.487Z,27.24
2022-08-12T18:52:49.094Z,26.97
2022-08-12T18:58:20.805Z,26.84
2022-08-12T19:03:52.581Z,26.79
2022-08-12T19:09:24.346Z,26.6
2022-08-12T19:15:02.901Z,26.37
2022-08-12T19:20:27.767Z,26.24
2022-08-12T19:26:02.415Z,26.08
2022-08-12T19:31:45.522Z,26.03
2022-08-12T19:37:02.973Z,25.9
2022-08-12T19:42:36.158Z,25.87
2022-08-12T19:48:10.635Z,25.98
2022-08-12T19:53:57.154Z,25.96
2022-08-12T19:59:14.159Z,26.04
2022-08-12T20:04:45.986Z,25.89
2022-08-12T20:10:17.607Z,25.79
2022-08-12T20:15:49.855Z,25.62
2022-08-12T20:21:24.159Z,25.37
2022-08-12T20:26:52.801Z,25.24
2022-08-12T20:32:29.546Z,25.17
2022-08-12T20:38:05.287Z,24.96
2022-08-12T20:43:31.209Z,24.82
2022-08-12T20:48:59.729Z,24.6
2022-08-12T20:54:35.820Z,24.64
2022-08-12T21:00:07.608Z,24.73
2022-08-12T21:05:41.302Z,24.68
2022-08-12T21:11:11.028Z,24.6
2022-08-12T21:16:42.816Z,24.54
2022-08-12T21:22:24.226Z,24.36
2022-08-12T21:27:58.448Z,24.17
2022-08-12T21:33:17.914Z,23.98
2022-08-12T21:38:49.645Z,23.99
2022-08-12T21:44:23.829Z,23.84
2022-08-12T21:45:45.197Z,23.84
2022-08-12T21:49:53.556Z,23.88
2022-08-12T21:55:29.280Z,23.92
2022-08-12T22:01:01.032Z,23.86
2022-08-12T22:06:43.041Z,23.79
2022-08-12T22:12:04.785Z,23.71
2022-08-12T22:17:49.758Z,23.55
2022-08-12T22:23:07.985Z,23.48
2022-08-12T22:28:39.736Z,23.38
2022-08-12T22:34:11.440Z,23.3
2022-08-12T22:39:43.796Z,23.24
2022-08-12T22:45:16.074Z,23.25
2022-08-12T22:50:46.582Z,22.99
2022-08-12T22:56:22.689Z,23.0
2022-08-12T23:02:02.158Z,23.03
2022-08-12T23:07:26.217Z,22.99
2022-08-12T23:12:58.555Z,22.85
2022-08-12T23:18:29.942Z,22.85
2022-08-12T23:24:09.867Z,22.74
2022-08-12T23:29:42.975Z,22.8
2022-08-12T23:35:04.899Z,22.82
2022-08-12T23:40:36.656Z,22.65
2022-08-12T23:46:08.341Z,22.82
2022-08-12T23:51:40.090Z,22.79
2022-08-12T23:57:16.257Z,22.76
